createdAt,value
2019-04-06T00:01:18.434Z,31.73
2019-04-06T00:03:47.012Z,31.53
2019-04-06T00:06:15.658Z,29.50
2019-04-06T00:08:46.970Z,33.90
2019-04-06T00:11:15.565Z,29.93
2019-04-06T00:13:44.515Z,28.87
2019-04-06T00:16:13.185Z,28.57
2019-04-06T00:18:41.799Z,29.53
2019-04-06T00:21:10.378Z,29.27
2019-04-06T00:23:39.015Z,29.80
2019-04-06T00:26:07.728Z,29.80
2019-04-06T00:28:36.284Z,29.70
2019-04-06T00:31:09.246Z,27.97
2019-04-06T00:33:37.863Z,28.70
2019-04-06T00:36:06.432Z,31.60
2019-04-06T00:38:34.979Z,28.57
2019-04-06T00:41:03.558Z,30.53
2019-04-06T00:43:32.135Z,28.60
2019-04-06T00:46:00.747Z,27.77
2019-04-06T00:48:29.365Z,29.83
2019-04-06T00:50:58.406Z,29.70
2019-04-06T00:53:27.039Z,30.10
2019-04-06T00:55:56.367Z,29.07
2019-04-06T00:58:25.414Z,29.50
2019-04-06T01:00:54.136Z,28.20
2019-04-06T01:03:22.692Z,28.03
2019-04-06T01:05:51.378Z,25.50
2019-04-06T01:08:20.162Z,27.20
2019-04-06T01:10:48.746Z,26.37
2019-04-06T01:13:17.388Z,26.60
2019-04-06T01:15:46.155Z,26.17
2019-04-06T01:18:16.521Z,26.90
2019-04-06T01:20:45.138Z,27.60
2019-04-06T01:23:15.622Z,26.03
2019-04-06T01:25:46.358Z,27.80
2019-04-06T01:28:15.072Z,24.93
2019-04-06T01:30:45.529Z,25.87
2019-04-06T01:33:17.110Z,25.97
2019-04-06T01:35:45.832Z,25.97
2019-04-06T01:38:17.446Z,26.10
2019-04-06T01:40:49.079Z,24.30
2019-04-06T01:43:17.665Z,23.30
2019-04-06T01:45:46.788Z,26.40
2019-04-06T01:48:18.180Z,25.40
2019-04-06T01:50:49.774Z,23.37
2019-04-06T01:53:18.387Z,25.17
2019-04-06T01:55:46.968Z,25.20
2019-04-06T01:58:16.052Z,25.50
2019-04-06T02:00:46.511Z,28.73
2019-04-06T02:03:15.068Z,27.30
2019-04-06T02:05:45.715Z,25.40
2019-04-06T02:08:14.622Z,27.93
2019-04-06T02:10:43.228Z,25.20
2019-04-06T02:13:11.816Z,25.77
2019-04-06T02:15:41.293Z,28.27
2019-04-06T02:18:09.902Z,25.47
2019-04-06T02:20:38.469Z,26.90
2019-04-06T02:23:07.052Z,25.17
2019-04-06T02:25:35.658Z,25.07
2019-04-06T02:28:04.234Z,26.73
2019-04-06T02:30:37.608Z,26.70
2019-04-06T02:33:23.537Z,27.27
2019-04-06T02:35:56.145Z,25.40
2019-04-06T02:38:32.044Z,25.17
2019-04-06T02:41:14.917Z,25.17
2019-04-06T02:43:44.693Z,25.63
2019-04-06T02:46:13.383Z,25.57
2019-04-06T02:48:41.954Z,23.43
2019-04-06T02:51:10.506Z,25.53
2019-04-06T02:53:39.241Z,24.03
2019-04-06T02:56:07.798Z,24.70
2019-04-06T02:58:36.485Z,26.00
2019-04-06T03:01:05.263Z,24.23
2019-04-06T03:03:33.948Z,23.30
2019-04-06T03:06:02.776Z,24.40
2019-04-06T03:08:31.562Z,22.47
2019-04-06T03:11:00.272Z,24.20
2019-04-06T03:13:29.084Z,22.83
2019-04-06T03:15:57.744Z,22.90
2019-04-06T03:18:26.756Z,23.70
2019-04-06T03:20:55.312Z,22.10
2019-04-06T03:23:25.335Z,24.13
2019-04-06T03:25:54.433Z,24.17
2019-04-06T03:28:23.086Z,26.23
2019-04-06T03:30:51.638Z,26.53
2019-04-06T03:33:20.217Z,24.43
2019-04-06T03:35:50.391Z,26.00
2019-04-06T03:38:19.195Z,26.43
2019-04-06T03:40:47.758Z,24.80
2019-04-06T03:43:16.640Z,25.50
2019-04-06T03:45:47.695Z,23.70
2019-04-06T03:48:16.305Z,26.23
2019-04-06T03:50:46.655Z,25.13
2019-04-06T03:53:17.761Z,24.47
2019-04-06T03:55:46.343Z,25.53
2019-04-06T03:58:14.957Z,23.87
2019-04-06T04:00:45.489Z,27.27
2019-04-06T04:03:16.219Z,25.37
2019-04-06T04:05:46.683Z,25.40
2019-04-06T04:08:18.190Z,23.50
2019-04-06T04:10:49.743Z,24.23
2019-04-06T04:13:18.373Z,24.43
2019-04-06T04:15:46.947Z,24.57
2019-04-06T04:18:15.833Z,23.50
2019-04-06T04:20:47.140Z,22.20
2019-04-06T04:23:17.230Z,24.67
2019-04-06T04:25:47.767Z,22.43
2019-04-06T04:28:16.785Z,22.90
2019-04-06T04:30:48.145Z,23.87
2019-04-06T04:33:19.777Z,23.23
2019-04-06T04:35:48.469Z,23.70
2019-04-06T04:38:17.282Z,24.50
2019-04-06T04:40:47.651Z,23.57
2019-04-06T04:43:16.272Z,22.23
2019-04-06T04:45:46.589Z,21.73
2019-04-06T04:48:18.116Z,23.40
2019-04-06T04:50:49.993Z,23.53
2019-04-06T04:53:18.847Z,25.20
2019-04-06T04:55:47.426Z,25.43
2019-04-06T04:58:18.735Z,25.67
2019-04-06T05:00:47.335Z,25.70
2019-04-06T05:03:17.420Z,24.70
2019-04-06T05:05:48.971Z,24.93
2019-04-06T05:08:17.526Z,22.60
2019-04-06T05:10:49.627Z,23.53
2019-04-06T05:13:18.297Z,22.97
2019-04-06T05:16:09.849Z,23.53
2019-04-06T05:18:39.177Z,25.60
2019-04-06T05:21:07.929Z,26.07
2019-04-06T05:23:36.506Z,23.10
2019-04-06T05:26:06.110Z,22.20
2019-04-06T05:28:34.773Z,23.40
2019-04-06T05:31:03.457Z,25.50
2019-04-06T05:33:32.042Z,22.87
2019-04-06T05:36:00.776Z,24.03
2019-04-06T05:38:29.352Z,25.73
2019-04-06T05:40:58.048Z,24.37
2019-04-06T05:43:26.609Z,24.03
2019-04-06T05:45:55.278Z,24.53
2019-04-06T05:48:23.841Z,23.93
2019-04-06T05:50:52.864Z,24.03
2019-04-06T05:53:21.828Z,24.33
2019-04-06T05:55:50.549Z,22.60
2019-04-06T05:58:19.227Z,22.80
2019-04-06T06:00:47.832Z,24.90
2019-04-06T06:03:16.594Z,24.20
2019-04-06T06:05:45.428Z,24.20
2019-04-06T06:08:14.639Z,23.13
2019-04-06T06:10:43.243Z,23.63
2019-04-06T06:13:11.801Z,24.03
2019-04-06T06:15:40.887Z,25.07
2019-04-06T06:18:09.767Z,23.00
2019-04-06T06:20:38.344Z,22.93
2019-04-06T06:23:06.901Z,23.23
2019-04-06T06:25:35.537Z,26.10
2019-04-06T06:28:13.747Z,23.80
2019-04-06T06:30:34.694Z,23.80
2019-04-06T06:33:03.517Z,23.83
2019-04-06T06:35:32.350Z,22.13
2019-04-06T06:38:01.312Z,23.10
2019-04-06T06:40:29.901Z,23.47
2019-04-06T06:42:58.470Z,22.30
2019-04-06T06:45:27.390Z,22.20
2019-04-06T06:47:55.954Z,23.37
2019-04-06T06:50:24.515Z,23.07
2019-04-06T06:52:53.091Z,23.43
2019-04-06T06:55:21.726Z,23.40
2019-04-06T06:57:50.416Z,21.47
2019-04-06T07:00:19.206Z,23.40
2019-04-06T07:02:47.836Z,24.90
2019-04-06T07:05:16.459Z,25.13
2019-04-06T07:07:45.319Z,29.93
2019-04-06T07:10:17.554Z,22.70
2019-04-06T07:12:48.898Z,23.33
2019-04-06T07:15:17.545Z,21.53
2019-04-06T07:17:49.170Z,23.90
2019-04-06T07:20:18.343Z,22.80
2019-04-06T07:22:50.244Z,22.90
2019-04-06T07:25:19.049Z,24.27
2019-04-06T07:27:47.671Z,24.93
2019-04-06T07:30:16.749Z,23.53
2019-04-06T07:32:48.311Z,22.37
2019-04-06T07:35:17.444Z,24.30
2019-04-06T07:37:48.831Z,24.50
2019-04-06T07:40:17.840Z,23.43
2019-04-06T07:42:48.281Z,22.87
2019-04-06T07:45:17.210Z,22.07
2019-04-06T07:47:47.368Z,23.70
2019-04-06T07:50:19.211Z,23.97
2019-04-06T07:52:47.796Z,23.57
2019-04-06T07:55:16.424Z,24.47
2019-04-06T07:57:45.156Z,24.83
2019-04-06T08:00:13.803Z,21.77
2019-04-06T08:02:42.390Z,23.40
2019-04-06T08:05:11.208Z,22.30
2019-04-06T08:07:39.897Z,21.50
2019-04-06T08:10:09.253Z,24.40
2019-04-06T08:12:38.490Z,21.57
2019-04-06T08:15:09.236Z,23.70
2019-04-06T08:17:37.809Z,24.30
2019-04-06T08:20:09.250Z,22.30
2019-04-06T08:22:37.905Z,22.57
2019-04-06T08:25:07.213Z,22.67
2019-04-06T08:27:35.786Z,22.33
2019-04-06T08:30:09.022Z,24.27
2019-04-06T08:33:00.138Z,23.90
2019-04-06T08:35:28.701Z,22.33
2019-04-06T08:37:57.429Z,22.07
2019-04-06T08:40:25.982Z,22.57
2019-04-06T08:42:54.571Z,22.30
2019-04-06T08:45:23.452Z,23.50
2019-04-06T08:47:52.312Z,23.10
2019-04-06T08:50:20.867Z,23.20
2019-04-06T08:52:49.969Z,23.20
2019-04-06T08:55:18.554Z,23.12
2019-04-06T08:57:47.499Z,22.40
2019-04-06T09:00:19.046Z,22.20
2019-04-06T09:02:47.655Z,21.13
2019-04-06T09:05:16.379Z,23.67
2019-04-06T09:07:44.991Z,50.40
2019-04-06T09:10:13.958Z,23.83
2019-04-06T09:12:42.796Z,21.50
2019-04-06T09:15:11.724Z,21.50
2019-04-06T09:17:40.458Z,22.43
2019-04-06T09:20:09.874Z,21.87
2019-04-06T09:22:38.460Z,21.57
2019-04-06T09:25:07.843Z,20.77
2019-04-06T09:27:36.790Z,20.90
2019-04-06T09:30:06.696Z,21.50
2019-04-06T09:32:35.284Z,21.13
2019-04-06T09:35:08.406Z,22.13
2019-04-06T09:37:43.153Z,20.77
2019-04-06T09:40:13.514Z,22.63
2019-04-06T09:42:42.309Z,23.00
2019-04-06T09:45:21.738Z,20.20
2019-04-06T09:47:58.044Z,21.30
2019-04-06T09:50:31.213Z,20.50
2019-04-06T09:53:17.726Z,20.10
2019-04-06T09:55:47.886Z,21.27
2019-04-06T09:58:22.428Z,21.27
2019-04-06T10:01:04.718Z,21.60
2019-04-06T10:03:41.343Z,19.10
2019-04-06T10:06:27.951Z,20.70
2019-04-06T10:09:17.318Z,19.67
2019-04-06T10:11:49.244Z,18.97
2019-04-06T10:14:19.425Z,19.80
2019-04-06T10:16:49.658Z,20.27
2019-04-06T10:19:22.678Z,20.10
2019-04-06T10:21:52.927Z,19.60
2019-04-06T10:24:25.942Z,18.90
2019-04-06T10:26:58.647Z,19.13
2019-04-06T10:29:31.966Z,17.70
2019-04-06T10:32:05.084Z,18.20
2019-04-06T10:34:35.626Z,18.67
2019-04-06T10:37:22.442Z,16.73
2019-04-06T10:39:52.788Z,17.87
2019-04-06T10:42:32.002Z,16.40
2019-04-06T10:45:05.337Z,17.03
2019-04-06T10:47:41.410Z,16.97
2019-04-06T10:50:11.700Z,16.70
2019-04-06T10:52:54.097Z,17.10
2019-04-06T10:55:24.316Z,18.03
2019-04-06T10:58:03.573Z,19.93
2019-04-06T11:00:36.416Z,18.23
2019-04-06T11:03:15.245Z,17.30
2019-04-06T11:05:45.728Z,17.73
2019-04-06T11:08:27.993Z,17.13
2019-04-06T11:11:19.950Z,19.17
2019-04-06T11:14:00.238Z,18.03
2019-04-06T11:16:36.130Z,18.30
2019-04-06T11:19:22.881Z,18.33
2019-04-06T11:21:58.792Z,19.27
2019-04-06T11:24:43.805Z,17.60
2019-04-06T11:27:20.507Z,17.93
2019-04-06T11:29:53.698Z,18.70
2019-04-06T11:32:40.039Z,16.10
2019-04-06T11:35:13.201Z,17.33
2019-04-06T11:37:46.876Z,16.70
2019-04-06T11:40:29.539Z,16.83
2019-04-06T11:43:05.617Z,18.43
2019-04-06T11:45:35.806Z,17.83
2019-04-06T11:48:12.230Z,17.60
2019-04-06T11:50:54.129Z,16.57
2019-04-06T11:53:36.379Z,16.97
2019-04-06T11:56:06.663Z,16.23
2019-04-06T11:58:40.017Z,16.80
2019-04-06T12:01:19.330Z,16.90
2019-04-06T12:03:55.698Z,16.80
2019-04-06T12:06:31.842Z,15.80
2019-04-06T12:09:10.500Z,14.90
2019-04-06T12:11:45.572Z,15.80
2019-04-06T12:14:18.461Z,14.40
2019-04-06T12:16:49.070Z,14.10
2019-04-06T12:19:25.107Z,16.00
2019-04-06T12:22:12.044Z,17.77
2019-04-06T12:24:54.037Z,14.40
2019-04-06T12:27:40.675Z,13.80
2019-04-06T12:30:16.308Z,14.07
2019-04-06T12:33:02.759Z,12.90
2019-04-06T12:35:35.655Z,16.33
2019-04-06T12:38:08.571Z,13.97
2019-04-06T12:40:55.007Z,18.40
2019-04-06T12:43:25.232Z,13.80
2019-04-06T12:46:11.491Z,12.40
2019-04-06T12:48:46.438Z,12.80
2019-04-06T12:51:31.802Z,12.77
2019-04-06T12:54:18.891Z,11.87
2019-04-06T12:56:49.520Z,12.50
2019-04-06T12:59:20.201Z,13.70
2019-04-06T13:02:05.183Z,12.80
2019-04-06T13:04:38.324Z,13.80
2019-04-06T13:07:08.519Z,12.90
2019-04-06T13:09:41.504Z,13.63
2019-04-06T13:12:12.635Z,13.10
2019-04-06T13:14:48.793Z,11.77
2019-04-06T13:17:25.737Z,10.43
2019-04-06T13:19:59.114Z,11.73
2019-04-06T13:22:34.815Z,11.43
2019-04-06T13:25:17.663Z,12.70
2019-04-06T13:27:49.398Z,12.00
2019-04-06T13:30:28.742Z,12.47
2019-04-06T13:33:15.127Z,12.83
2019-04-06T13:35:45.377Z,12.60
2019-04-06T13:38:15.582Z,13.63
2019-04-06T13:40:48.206Z,12.70
2019-04-06T13:43:24.244Z,12.33
2019-04-06T13:46:06.417Z,11.50
2019-04-06T13:48:36.651Z,11.33
2019-04-06T13:51:15.352Z,11.97
2019-04-06T13:53:45.942Z,11.97
2019-04-06T13:56:16.515Z,11.73
2019-04-06T13:59:01.761Z,11.23
2019-04-06T14:01:35.115Z,12.10
2019-04-06T14:04:08.026Z,11.53
2019-04-06T14:06:45.811Z,11.20
2019-04-06T14:09:21.985Z,10.53
2019-04-06T14:11:55.203Z,10.53
2019-04-06T14:14:40.399Z,11.20
2019-04-06T14:17:10.642Z,10.20
2019-04-06T14:19:43.331Z,12.40
2019-04-06T14:22:15.211Z,11.07
2019-04-06T14:24:54.122Z,9.60
2019-04-06T14:27:42.435Z,9.67
2019-04-06T14:30:12.771Z,10.20
2019-04-06T14:32:45.716Z,11.00
2019-04-06T14:35:16.038Z,9.67
2019-04-06T14:37:52.460Z,9.83
2019-04-06T14:40:38.946Z,11.37
2019-04-06T14:43:15.424Z,10.70
2019-04-06T14:45:48.701Z,10.53
2019-04-06T14:48:19.067Z,10.13
2019-04-06T14:50:50.782Z,9.83
2019-04-06T14:53:37.171Z,9.67
2019-04-06T14:56:07.951Z,10.77
2019-04-06T14:58:38.154Z,9.80
2019-04-06T15:01:08.463Z,9.33
2019-04-06T15:03:38.704Z,8.63
2019-04-06T15:06:08.903Z,9.80
2019-04-06T15:08:41.980Z,10.57
2019-04-06T15:11:18.355Z,9.53
2019-04-06T15:13:51.411Z,9.20
2019-04-06T15:16:30.879Z,9.90
2019-04-06T15:19:07.074Z,9.87
2019-04-06T15:21:43.933Z,8.80
2019-04-06T15:24:15.422Z,9.87
2019-04-06T15:26:45.682Z,9.80
2019-04-06T15:29:30.764Z,10.50
2019-04-06T15:32:04.078Z,9.13
2019-04-06T15:34:50.895Z,9.80
2019-04-06T15:37:21.440Z,8.20
2019-04-06T15:39:57.360Z,9.00
2019-04-06T15:42:46.155Z,9.23
2019-04-06T15:45:34.730Z,10.00
2019-04-06T15:48:05.363Z,9.23
2019-04-06T15:50:41.438Z,9.63
2019-04-06T15:53:20.713Z,9.80
2019-04-06T15:55:51.054Z,10.00
2019-04-06T15:58:21.632Z,10.50
2019-04-06T16:01:08.167Z,9.63
2019-04-06T16:03:41.192Z,10.93
2019-04-06T16:06:11.433Z,9.07
2019-04-06T16:08:41.659Z,8.67
2019-04-06T16:11:12.148Z,9.00
2019-04-06T16:13:42.485Z,9.63
2019-04-06T16:16:22.052Z,10.07
2019-04-06T16:19:04.390Z,9.67
2019-04-06T16:21:40.480Z,10.13
2019-04-06T16:24:15.638Z,10.23
2019-04-06T16:26:51.423Z,8.87
2019-04-06T16:29:21.639Z,9.00
2019-04-06T16:31:52.263Z,9.57
2019-04-06T16:34:22.501Z,9.97
2019-04-06T16:36:52.865Z,9.83
2019-04-06T16:39:26.579Z,8.77
2019-04-06T16:41:56.969Z,9.90
2019-04-06T16:44:30.375Z,9.70
2019-04-06T16:47:16.926Z,10.40
2019-04-06T16:49:50.039Z,9.43
2019-04-06T16:52:23.157Z,10.60
2019-04-06T16:54:53.402Z,9.63
2019-04-06T16:57:23.891Z,10.00
2019-04-06T16:59:56.908Z,9.60
2019-04-06T17:02:36.241Z,9.60
2019-04-06T17:05:07.433Z,9.27
2019-04-06T17:07:46.512Z,8.63
2019-04-06T17:10:17.026Z,9.70
2019-04-06T17:12:47.720Z,10.33
2019-04-06T17:15:30.651Z,9.50
2019-04-06T17:18:17.393Z,9.77
2019-04-06T17:20:56.054Z,9.90
2019-04-06T17:23:31.937Z,10.20
2019-04-06T17:26:02.186Z,10.47
2019-04-06T17:28:47.405Z,9.87
2019-04-06T17:31:29.881Z,12.40
2019-04-06T17:34:06.160Z,13.00
2019-04-06T17:36:54.986Z,14.93
2019-04-06T17:39:28.177Z,14.67
2019-04-06T17:42:10.931Z,14.03
2019-04-06T17:44:41.589Z,11.93
2019-04-06T17:47:18.062Z,12.50
2019-04-06T17:49:51.605Z,12.67
2019-04-06T17:52:25.163Z,10.17
2019-04-06T17:54:55.848Z,12.40
2019-04-06T17:57:42.064Z,11.33
2019-04-06T18:00:19.809Z,13.07
2019-04-06T18:02:51.018Z,10.97
2019-04-06T18:05:36.364Z,12.87
2019-04-06T18:08:13.124Z,10.53
2019-04-06T18:10:55.193Z,10.70
2019-04-06T18:13:45.459Z,11.30
2019-04-06T18:16:14.343Z,11.73
2019-04-06T18:18:42.995Z,11.20
2019-04-06T18:21:11.660Z,12.10
2019-04-06T18:23:40.362Z,12.37
2019-04-06T18:26:09.491Z,12.07
2019-04-06T18:28:38.102Z,12.50
2019-04-06T18:31:08.557Z,13.50
2019-04-06T18:33:37.270Z,12.77
2019-04-06T18:36:06.049Z,13.00
2019-04-06T18:38:43.274Z,11.10
2019-04-06T18:41:12.023Z,12.97
2019-04-06T18:43:40.753Z,12.80
2019-04-06T18:46:09.360Z,11.60
2019-04-06T18:48:38.298Z,11.83
2019-04-06T18:51:07.648Z,11.00
2019-04-06T18:53:37.043Z,12.60
2019-04-06T18:56:05.888Z,13.90
2019-04-06T18:58:34.453Z,12.07
2019-04-06T19:01:03.719Z,12.60
2019-04-06T19:03:32.668Z,12.57
2019-04-06T19:06:01.359Z,12.50
2019-04-06T19:08:30.020Z,12.70
2019-04-06T19:10:58.948Z,12.60
2019-04-06T19:13:27.691Z,12.00
2019-04-06T19:15:56.789Z,12.77
2019-04-06T19:18:25.492Z,13.27
2019-04-06T19:20:54.203Z,11.90
2019-04-06T19:23:22.967Z,11.90
2019-04-06T19:25:51.639Z,12.47
2019-04-06T19:28:20.966Z,12.73
2019-04-06T19:30:49.928Z,13.43
2019-04-06T19:33:25.007Z,13.90
2019-04-06T19:35:49.433Z,11.60
2019-04-06T19:38:18.174Z,13.57
2019-04-06T19:40:50.398Z,13.53
2019-04-06T19:43:19.095Z,15.23
2019-04-06T19:45:47.690Z,12.67
2019-04-06T19:48:16.299Z,13.33
2019-04-06T19:50:45.013Z,13.50
2019-04-06T19:53:15.710Z,13.30
2019-04-06T19:55:44.612Z,12.73
2019-04-06T19:58:13.708Z,12.53
2019-04-06T20:00:42.636Z,12.90
2019-04-06T20:03:11.164Z,13.93
2019-04-06T20:05:40.201Z,13.23
2019-04-06T20:08:09.712Z,13.50
2019-04-06T20:10:38.640Z,12.93
2019-04-06T20:13:07.565Z,12.73
2019-04-06T20:15:36.393Z,11.97
2019-04-06T20:18:05.494Z,12.27
2019-04-06T20:20:34.287Z,12.50
2019-04-06T20:23:02.947Z,12.27
2019-04-06T20:25:31.943Z,12.90
2019-04-06T20:28:00.486Z,13.83
2019-04-06T20:30:29.051Z,12.30
2019-04-06T20:32:58.133Z,13.33
2019-04-06T20:35:27.148Z,11.90
2019-04-06T20:37:55.869Z,14.10
2019-04-06T20:40:24.562Z,12.93
2019-04-06T20:42:53.202Z,12.93
2019-04-06T20:45:21.805Z,15.00
2019-04-06T20:47:50.699Z,13.90
2019-04-06T20:50:19.346Z,13.47
2019-04-06T20:52:48.375Z,14.10
2019-04-06T20:55:16.995Z,12.90
2019-04-06T20:57:46.217Z,13.83
2019-04-06T21:00:16.952Z,13.27
2019-04-06T21:02:45.602Z,12.80
2019-04-06T21:05:16.724Z,13.13
2019-04-06T21:07:48.499Z,13.00
2019-04-06T21:10:17.203Z,13.30
2019-04-06T21:12:47.620Z,12.53
2019-04-06T21:15:20.545Z,14.17
2019-04-06T21:17:48.536Z,12.20
2019-04-06T21:20:18.299Z,12.60
2019-04-06T21:22:47.042Z,14.37
2019-04-06T21:25:15.738Z,12.90
2019-04-06T21:27:47.823Z,15.00
2019-04-06T21:30:16.930Z,13.00
2019-04-06T21:32:45.873Z,12.23
2019-04-06T21:35:16.337Z,13.23
2019-04-06T21:37:45.925Z,13.50
2019-04-06T21:40:16.988Z,13.17
2019-04-06T21:43:06.885Z,13.37
2019-04-06T21:45:35.545Z,12.50
2019-04-06T21:48:04.863Z,12.97
2019-04-06T21:50:33.481Z,12.00
2019-04-06T21:53:02.529Z,14.97
2019-04-06T21:55:31.278Z,12.90
2019-04-06T21:57:59.895Z,12.73
2019-04-06T22:00:33.308Z,12.73
2019-04-06T22:03:02.885Z,12.10
2019-04-06T22:05:32.017Z,13.20
2019-04-06T22:08:00.746Z,13.53
2019-04-06T22:10:29.821Z,12.87
2019-04-06T22:12:58.936Z,12.30
2019-04-06T22:15:28.266Z,12.10
2019-04-06T22:17:56.869Z,13.23
2019-04-06T22:20:25.501Z,13.67
2019-04-06T22:22:54.122Z,11.80
2019-04-06T22:25:22.740Z,14.30
2019-04-06T22:27:51.350Z,12.87
2019-04-06T22:30:20.067Z,12.63
2019-04-06T22:32:49.625Z,13.20
2019-04-06T22:35:18.443Z,12.30
2019-04-06T22:37:47.459Z,12.77
2019-04-06T22:40:19.685Z,12.83
2019-04-06T22:42:48.390Z,13.57
2019-04-06T22:45:21.712Z,13.80
2019-04-06T22:47:50.833Z,13.60
2019-04-06T22:50:19.983Z,13.20
2019-04-06T22:52:49.217Z,12.87
2019-04-06T22:55:17.808Z,13.20
2019-04-06T22:57:46.618Z,13.43
2019-04-06T23:00:20.279Z,12.50
2019-04-06T23:02:57.131Z,12.43
2019-04-06T23:05:30.202Z,14.00
2019-04-06T23:07:59.844Z,12.97
2019-04-06T23:10:28.556Z,12.97
2019-04-06T23:12:57.437Z,13.57
2019-04-06T23:15:26.620Z,13.00
2019-04-06T23:17:55.503Z,13.00
2019-04-06T23:20:24.375Z,12.40
2019-04-06T23:22:52.965Z,12.20
2019-04-06T23:25:21.642Z,13.80
2019-04-06T23:27:50.357Z,13.17
2019-04-06T23:30:19.390Z,13.40
2019-04-06T23:32:47.971Z,13.93
2019-04-06T23:35:18.567Z,13.00
2019-04-06T23:37:47.267Z,13.70
2019-04-06T23:40:16.620Z,12.83
2019-04-06T23:42:48.141Z,14.10
2019-04-06T23:45:19.649Z,12.47
2019-04-06T23:47:48.425Z,12.97
2019-04-06T23:50:17.056Z,12.67
2019-04-06T23:52:46.659Z,13.07
2019-04-06T23:55:18.110Z,13.57
2019-04-06T23:57:50.052Z,14.57
